Terminal Aerodrome Forecast
Issued by NWS Charleston, WV

Current Version | Previous Version | Graphics & Text | Print | Product List | Glossary On
Versions: 1 2 3 4 5 6 7 8 9 10 11 12 13 14 15 16 17 18 19 20 21 22 23
000
FTUS41 KRLX 051600 AAC
TAFPKB
TAF AMD
KPKB 051610Z 0516/0612 35008KT 1SM -SN BR OVC008
     FM051700 33005KT 3SM -SN BR OVC012
     FM051900 32006KT 6SM -SN OVC020
     FM052100 32005KT P6SM BKN025
     FM060200 33003KT P6SM SCT030=

USA.gov is the U.S. government's official web portal to all federal, state and local government web resources and services.